createdAt,value
2022-08-16T01:02:31.319Z,13.27
2022-08-16T07:13:03.212Z,26.52
2022-08-16T07:15:36.049Z,26.40
2022-08-16T07:18:05.496Z,29.77
2022-08-16T07:20:47.851Z,27.25
2022-08-16T07:23:16.162Z,26.80
2022-08-16T07:25:58.333Z,33.17
2022-08-16T07:29:01.178Z,27.75
2022-08-16T07:31:28.740Z,27.48
2022-08-16T07:34:09.991Z,28.10
2022-08-16T07:37:01.493Z,29.08
2022-08-16T07:43:15.259Z,28.65
2022-08-16T07:46:01.261Z,30.85
2022-08-16T07:49:11.210Z,27.83
2022-08-16T07:51:45.241Z,28.67
2022-08-16T07:54:32.400Z,26.52
2022-08-16T07:57:06.341Z,28.08
2022-08-16T07:59:57.210Z,29.08
2022-08-16T08:02:33.385Z,27.42
2022-08-16T08:05:14.724Z,29.20
2022-08-16T08:07:51.434Z,29.58
2022-08-16T08:10:29.621Z,26.52
2022-08-16T08:16:04.262Z,26.48
2022-08-16T08:18:39.811Z,31.63
2022-08-16T08:21:12.843Z,27.15
2022-08-16T08:23:42.514Z,24.23
2022-08-16T08:26:31.163Z,22.73
2022-08-16T08:29:12.772Z,16.58
2022-08-16T08:31:40.381Z,13.35
2022-08-16T08:34:15.604Z,15.38
2022-08-16T08:36:46.112Z,15.48
2022-08-16T08:39:20.922Z,21.23
2022-08-16T08:41:51.843Z,16.83
2022-08-16T08:44:28.835Z,16.98
2022-08-16T08:46:59.672Z,20.98
2022-08-16T08:49:46.084Z,18.75
2022-08-16T08:52:34.515Z,20.55
2022-08-16T08:55:28.055Z,17.33
2022-08-16T08:58:15.411Z,19.42
2022-08-16T09:00:53.147Z,20.50
2022-08-16T09:07:29.740Z,21.33
2022-08-16T09:14:00.673Z,19.33
2022-08-16T09:42:59.852Z,11.48
2022-08-16T09:46:45.007Z,12.23
2022-08-16T09:49:20.324Z,11.48
2022-08-16T09:51:52.863Z,11.57
2022-08-16T09:54:58.651Z,12.68
2022-08-16T09:57:25.861Z,10.10
2022-08-16T10:04:02.596Z,11.70
2022-08-16T10:10:33.224Z,18.33
2022-08-16T10:13:00.901Z,14.02
2022-08-16T10:15:31.184Z,10.38
2022-08-16T10:18:01.274Z,13.55
2022-08-16T10:20:35.214Z,10.90
2022-08-16T10:23:07.154Z,11.20
2022-08-16T10:27:20.024Z,10.35
2022-08-16T10:28:29.037Z,8.50
2022-08-16T10:31:16.907Z,7.03
2022-08-16T10:45:16.268Z,7.70
2022-08-16T10:48:27.503Z,8.30
2022-08-16T11:31:29.668Z,12.65
2022-08-16T11:34:23.121Z,15.30
2022-08-16T11:37:17.071Z,13.52
2022-08-16T11:40:10.215Z,15.85
2022-08-16T11:43:37.512Z,17.05
2022-08-16T14:03:08.277Z,7.75
2022-08-16T15:03:32.062Z,4.75
2022-08-16T15:12:26.180Z,7.65
2022-08-16T15:16:07.572Z,5.13
2022-08-16T15:25:41.799Z,5.15
2022-08-16T15:41:02.205Z,5.90
2022-08-16T15:50:44.166Z,6.95
2022-08-16T15:54:05.637Z,5.90
2022-08-16T16:01:23.922Z,9.02
2022-08-16T16:21:38.966Z,6.93
2022-08-16T18:42:55.758Z,16.40
2022-08-16T19:52:17.083Z,24.05
2022-08-16T19:55:04.094Z,24.48
2022-08-16T19:57:39.506Z,24.48
2022-08-16T20:00:11.258Z,25.38
2022-08-16T20:02:41.711Z,24.70
2022-08-16T20:05:23.845Z,27.00
2022-08-16T20:08:05.771Z,24.52
2022-08-16T20:10:47.382Z,25.52
2022-08-16T20:13:17.851Z,24.27
2022-08-16T20:15:45.652Z,26.92
2022-08-16T20:18:24.996Z,24.65
2022-08-16T20:20:56.197Z,25.58
2022-08-16T20:23:36.806Z,25.08
